createdAt,value
2022-09-09T00:01:52.762Z,76346.47
2022-09-09T00:04:28.768Z,76342.44
2022-09-09T00:07:13.915Z,76346.47
2022-09-09T00:09:50.159Z,76352.47
2022-09-09T00:12:19.383Z,76350.47
2022-09-09T00:14:51.831Z,76348.47
2022-09-09T00:17:18.285Z,76346.47
2022-09-09T00:19:53.634Z,76350.47
2022-09-09T00:22:21.597Z,76342.44
2022-09-09T00:24:54.320Z,76348.47
2022-09-09T00:27:32.759Z,76346.47
2022-09-09T00:30:19.541Z,76346.47
2022-09-09T00:32:46.773Z,76342.44
2022-09-09T00:35:23.423Z,76338.44
2022-09-09T00:37:51.329Z,76338.44
2022-09-09T00:40:23.323Z,76334.44
2022-09-09T00:42:54.855Z,76334.44
2022-09-09T00:45:34.887Z,76330.44
2022-09-09T00:48:07.661Z,76328.44
2022-09-09T00:50:54.304Z,76328.44
2022-09-09T00:53:40.594Z,76326.44
2022-09-09T00:56:06.903Z,76332.44
2022-09-09T00:58:33.558Z,76330.44
2022-09-09T01:01:07.715Z,76322.44
2022-09-09T01:03:35.702Z,76326.44
2022-09-09T01:06:14.364Z,76324.44
2022-09-09T01:08:48.921Z,76320.44
2022-09-09T01:11:21.082Z,76330.44
2022-09-09T01:13:48.829Z,76330.44
2022-09-09T01:16:15.616Z,76334.44
2022-09-09T01:18:45.505Z,76334.44
2022-09-09T01:21:23.591Z,76338.44
2022-09-09T01:24:08.726Z,76334.44
2022-09-09T01:26:36.624Z,76334.44
2022-09-09T01:29:03.061Z,76342.44
2022-09-09T01:31:36.756Z,76338.44
2022-09-09T01:34:03.532Z,76338.44
2022-09-09T01:36:42.921Z,76338.44
2022-09-09T01:39:09.444Z,76338.44
2022-09-09T01:41:35.901Z,76332.44
2022-09-09T01:44:03.087Z,76330.44
2022-09-09T01:46:29.960Z,76330.44
2022-09-09T01:48:57.281Z,76332.44
2022-09-09T01:51:24.365Z,76324.44
2022-09-09T01:53:50.874Z,76334.44
2022-09-09T01:56:17.180Z,76330.44
2022-09-09T01:58:46.545Z,76330.44
2022-09-09T02:01:26.262Z,76332.44
2022-09-09T02:03:54.310Z,76330.44
2022-09-09T02:06:20.607Z,76332.44
2022-09-09T02:08:48.756Z,76332.44
2022-09-09T02:11:19.643Z,76334.44
2022-09-09T02:13:47.532Z,76342.44
2022-09-09T02:16:17.035Z,76342.44
2022-09-09T02:18:50.675Z,76340.44
2022-09-09T02:21:18.682Z,76346.47
2022-09-09T02:23:47.914Z,76342.44
2022-09-09T02:26:20.584Z,76346.47
2022-09-09T02:28:48.491Z,76348.47
2022-09-09T02:31:17.339Z,76350.47
2022-09-09T02:33:46.387Z,76350.47
2022-09-09T02:36:16.995Z,76352.47
2022-09-09T02:38:46.768Z,76350.47
2022-09-09T02:41:13.092Z,76350.47
2022-09-09T02:43:39.575Z,76346.47
2022-09-09T02:46:26.085Z,76350.47
2022-09-09T02:48:58.890Z,76352.47
2022-09-09T02:51:33.411Z,76346.47
2022-09-09T02:54:17.991Z,76350.47
2022-09-09T02:56:51.026Z,76344.47
2022-09-09T02:59:17.503Z,76342.44
2022-09-09T03:01:45.066Z,76340.44
2022-09-09T03:04:11.484Z,76346.47
2022-09-09T03:06:37.929Z,76350.47
2022-09-09T03:09:04.299Z,76350.47
2022-09-09T03:11:30.659Z,76346.47
2022-09-09T03:13:57.124Z,76344.47
2022-09-09T03:16:24.222Z,76346.47
2022-09-09T03:18:50.614Z,76350.47
2022-09-09T03:21:17.032Z,76350.47
2022-09-09T03:23:43.379Z,76346.47
2022-09-09T03:26:09.727Z,76352.47
2022-09-09T03:28:36.570Z,76350.47
2022-09-09T03:31:04.622Z,76354.47
2022-09-09T03:33:32.181Z,76352.47
2022-09-09T03:35:58.694Z,76354.47
2022-09-09T03:38:25.403Z,76358.47
2022-09-09T03:40:54.583Z,76362.47
2022-09-09T03:43:22.240Z,76366.47
2022-09-09T03:45:49.062Z,76370.47
2022-09-09T03:48:16.360Z,76370.47
2022-09-09T03:50:46.512Z,76370.47
2022-09-09T03:53:13.155Z,76364.47
2022-09-09T03:55:39.515Z,76358.47
2022-09-09T03:58:05.997Z,76356.47
2022-09-09T04:00:32.992Z,76350.47
2022-09-09T04:02:59.492Z,76340.44
2022-09-09T04:05:26.007Z,76338.44
2022-09-09T04:07:52.550Z,76336.44
2022-09-09T04:10:18.898Z,76336.44
2022-09-09T04:12:48.970Z,76336.44
2022-09-09T04:15:15.982Z,76334.44
2022-09-09T04:17:42.641Z,76330.44
2022-09-09T04:20:12.328Z,76330.44
2022-09-09T04:22:40.278Z,76326.44
2022-09-09T04:25:06.960Z,76338.44
2022-09-09T04:27:33.308Z,76338.44
2022-09-09T04:29:59.910Z,76342.44
2022-09-09T04:32:29.519Z,76342.44
2022-09-09T04:34:55.859Z,76342.44
2022-09-09T04:37:22.256Z,76348.47
2022-09-09T04:39:48.646Z,76344.47
2022-09-09T04:42:15.068Z,76342.44
2022-09-09T04:44:41.817Z,76358.47
2022-09-09T04:47:08.214Z,76358.47
2022-09-09T04:49:34.570Z,76358.47
2022-09-09T04:52:01.108Z,76356.47
2022-09-09T04:54:28.813Z,76358.47
2022-09-09T04:56:55.887Z,76366.47
2022-09-09T04:59:22.860Z,76366.47
2022-09-09T05:01:51.145Z,76374.47
2022-09-09T05:04:17.627Z,76372.47
2022-09-09T05:06:44.154Z,76376.47
2022-09-09T05:09:10.474Z,76380.47
2022-09-09T05:11:39.511Z,76374.47
2022-09-09T05:14:06.072Z,76378.47
2022-09-09T05:16:32.559Z,76374.47
2022-09-09T05:19:00.023Z,76378.47
2022-09-09T05:21:27.678Z,76374.47
2022-09-09T05:23:54.106Z,76374.47
2022-09-09T05:26:21.733Z,76370.47
2022-09-09T05:28:48.568Z,76374.47
2022-09-09T05:31:16.357Z,76374.47
2022-09-09T05:33:44.107Z,76368.47
2022-09-09T05:36:13.920Z,76374.47
2022-09-09T05:38:41.491Z,76372.47
2022-09-09T05:41:08.462Z,76378.47
2022-09-09T05:43:36.734Z,76378.47
2022-09-09T05:46:07.259Z,76378.47
2022-09-09T05:48:35.264Z,76378.47
2022-09-09T05:51:02.768Z,76380.47
2022-09-09T05:53:33.195Z,76386.47
2022-09-09T05:56:00.701Z,76382.47
2022-09-09T05:58:27.036Z,76382.47
2022-09-09T06:00:53.375Z,76382.47
2022-09-09T06:03:19.829Z,76386.47
2022-09-09T06:05:46.168Z,76388.47
2022-09-09T06:08:12.585Z,76384.47
2022-09-09T06:10:38.985Z,76382.47
2022-09-09T06:13:05.348Z,76382.47
2022-09-09T06:15:32.840Z,76388.47
2022-09-09T06:17:59.218Z,76386.47
2022-09-09T06:20:26.440Z,76388.47
2022-09-09T06:22:53.075Z,76394.50
2022-09-09T06:25:19.405Z,76390.47
2022-09-09T06:27:50.383Z,76394.50
2022-09-09T06:30:18.241Z,76394.50
2022-09-09T06:32:44.788Z,76398.50
2022-09-09T06:35:11.831Z,76398.50
2022-09-09T06:37:38.187Z,76394.50
2022-09-09T06:40:04.752Z,76388.47
2022-09-09T06:42:31.751Z,76388.47
2022-09-09T06:44:58.211Z,76384.47
2022-09-09T06:47:25.642Z,76384.47
2022-09-09T06:49:52.126Z,76386.47
2022-09-09T06:52:19.228Z,76392.50
2022-09-09T06:54:46.349Z,76390.47
2022-09-09T06:57:34.087Z,76390.47
2022-09-09T06:59:59.077Z,76388.47
2022-09-09T07:02:25.778Z,76386.47
2022-09-09T07:04:52.666Z,76392.50
2022-09-09T07:07:19.055Z,76394.50
2022-09-09T07:09:46.505Z,76394.50
2022-09-09T07:12:13.168Z,76398.50
2022-09-09T07:14:39.470Z,76398.50
2022-09-09T07:17:05.815Z,76398.50
2022-09-09T07:19:32.118Z,76402.50
2022-09-09T07:21:58.493Z,76398.50
2022-09-09T07:24:24.870Z,76402.50
2022-09-09T07:26:51.723Z,76396.50
2022-09-09T07:29:20.788Z,76396.50
2022-09-09T07:31:47.729Z,76398.50
2022-09-09T07:34:14.124Z,76394.50
2022-09-09T07:36:41.040Z,76390.47
2022-09-09T07:39:10.007Z,76394.50
2022-09-09T07:41:40.699Z,76394.50
2022-09-09T07:44:08.179Z,76400.50
2022-09-09T07:46:35.295Z,76398.50
2022-09-09T07:49:01.946Z,76394.50
2022-09-09T07:51:30.832Z,76398.50
2022-09-09T07:53:59.056Z,76404.50
2022-09-09T07:56:26.562Z,76410.50
2022-09-09T07:58:54.249Z,76406.50
2022-09-09T08:01:22.462Z,76404.50
2022-09-09T08:03:56.556Z,76412.50
2022-09-09T08:06:23.245Z,76404.50
2022-09-09T08:08:51.384Z,76410.50
2022-09-09T08:11:17.953Z,76414.50
2022-09-09T08:13:44.746Z,76410.50
2022-09-09T08:16:24.082Z,76418.50
2022-09-09T08:18:50.729Z,76418.50
2022-09-09T08:21:18.985Z,76418.50
2022-09-09T08:23:46.826Z,76416.50
2022-09-09T08:26:15.779Z,76414.50
2022-09-09T08:28:42.799Z,76412.50
2022-09-09T08:31:17.382Z,76406.50
2022-09-09T08:33:46.888Z,76406.50
2022-09-09T08:36:16.183Z,76406.50
2022-09-09T08:38:48.806Z,76410.50
2022-09-09T08:41:23.579Z,76410.50
2022-09-09T08:43:51.764Z,76412.50
2022-09-09T08:46:27.851Z,76408.50
2022-09-09T08:49:13.081Z,76404.50
2022-09-09T08:51:39.802Z,76394.50
2022-09-09T08:54:06.646Z,76396.50
2022-09-09T08:56:33.320Z,76406.50
2022-09-09T08:59:01.660Z,76400.50
2022-09-09T09:01:34.001Z,76404.50
2022-09-09T09:04:19.140Z,76410.50
2022-09-09T09:06:49.354Z,76404.50
2022-09-09T09:09:34.191Z,76406.50
2022-09-09T09:12:02.443Z,76408.50
2022-09-09T09:14:31.515Z,76408.50
2022-09-09T09:17:00.333Z,76406.50
2022-09-09T09:19:28.098Z,76410.50
2022-09-09T09:21:59.500Z,76410.50
2022-09-09T09:24:42.081Z,76406.50
2022-09-09T09:27:13.421Z,76406.50
2022-09-09T09:30:03.472Z,76406.50
2022-09-09T09:32:29.347Z,76404.50
2022-09-09T09:35:00.370Z,76402.50
2022-09-09T09:37:31.454Z,76402.50
2022-09-09T09:40:08.701Z,76400.50
2022-09-09T09:42:35.307Z,76398.50
2022-09-09T09:45:19.733Z,76402.50
2022-09-09T09:47:46.210Z,76398.50
2022-09-09T09:50:20.695Z,76394.50
2022-09-09T09:52:54.862Z,76390.47
2022-09-09T09:55:21.864Z,76398.50
2022-09-09T09:57:49.822Z,76402.50
2022-09-09T10:00:21.941Z,76394.50
2022-09-09T10:02:49.458Z,76398.50
2022-09-09T10:05:17.810Z,76398.50
2022-09-09T10:07:47.099Z,76398.50
2022-09-09T10:10:16.445Z,76398.50
2022-09-09T10:12:49.782Z,76404.50
2022-09-09T10:15:35.597Z,76400.50
2022-09-09T10:18:08.142Z,76398.50
2022-09-09T10:20:34.811Z,76400.50
2022-09-09T10:23:10.558Z,76406.50
2022-09-09T10:25:46.687Z,76414.50
2022-09-09T10:28:29.285Z,76402.50
2022-09-09T10:30:58.447Z,76410.50
2022-09-09T10:33:28.810Z,76404.50
2022-09-09T10:36:03.983Z,76402.50
2022-09-09T10:38:33.382Z,76402.50
2022-09-09T10:41:01.770Z,76402.50
2022-09-09T10:43:40.280Z,76406.50
2022-09-09T10:46:13.635Z,76402.50
2022-09-09T10:48:58.971Z,76412.50
2022-09-09T10:51:31.678Z,76408.50
2022-09-09T10:54:16.954Z,76404.50
2022-09-09T10:56:44.932Z,76406.50
2022-09-09T10:59:25.849Z,76404.50
2022-09-09T11:01:57.042Z,76406.50
2022-09-09T11:04:26.791Z,76406.50
2022-09-09T11:06:57.185Z,76404.50
2022-09-09T11:09:26.718Z,76400.50
2022-09-09T11:11:57.200Z,76402.50
2022-09-09T11:14:36.850Z,76406.50
2022-09-09T11:17:06.986Z,76406.50
2022-09-09T11:19:36.385Z,76406.50
2022-09-09T11:22:23.114Z,76408.50
2022-09-09T11:24:55.778Z,76402.50
2022-09-09T11:27:48.379Z,76408.50
2022-09-09T11:30:27.226Z,76408.50
2022-09-09T11:33:09.509Z,76410.50
2022-09-09T11:35:48.180Z,76410.50
2022-09-09T11:38:18.972Z,76406.50
2022-09-09T11:40:45.760Z,76410.50
2022-09-09T11:43:14.834Z,76404.50
2022-09-09T11:45:42.780Z,76410.50
2022-09-09T11:48:24.810Z,76406.50
2022-09-09T11:50:59.090Z,76400.50
2022-09-09T11:53:25.494Z,76404.50
2022-09-09T11:56:12.187Z,76396.50
2022-09-09T11:58:40.211Z,76400.50
2022-09-09T12:01:16.519Z,76402.50
2022-09-09T12:03:52.461Z,76402.50
2022-09-09T12:06:28.256Z,76396.50
2022-09-09T12:08:57.454Z,76402.50
2022-09-09T12:11:31.631Z,76398.50
2022-09-09T12:14:04.414Z,76396.50
2022-09-09T12:16:34.219Z,76390.47
2022-09-09T12:19:05.123Z,76382.47
2022-09-09T12:21:38.691Z,76380.47
2022-09-09T12:24:15.096Z,76384.47
2022-09-09T12:26:58.924Z,76376.47
2022-09-09T12:29:37.638Z,76380.47
2022-09-09T12:32:04.238Z,76386.47
2022-09-09T12:34:39.683Z,76390.47
2022-09-09T12:37:11.914Z,76386.47
2022-09-09T12:39:46.663Z,76378.47
2022-09-09T12:42:17.318Z,76378.47
2022-09-09T12:45:04.433Z,76374.47
2022-09-09T12:47:46.857Z,76376.47
2022-09-09T12:50:18.681Z,76376.47
2022-09-09T12:52:45.474Z,76374.47
2022-09-09T12:55:22.720Z,76374.47
2022-09-09T12:57:51.228Z,76374.47
2022-09-09T13:00:18.970Z,76374.47
2022-09-09T13:02:52.950Z,76376.47
2022-09-09T13:05:21.171Z,76376.47
2022-09-09T13:07:48.211Z,76380.47
2022-09-09T13:10:21.457Z,76378.47
2022-09-09T13:12:58.272Z,76378.47
2022-09-09T13:15:28.382Z,76378.47
2022-09-09T13:18:03.627Z,76376.47
2022-09-09T13:20:30.062Z,76370.47
2022-09-09T13:22:56.822Z,76370.47
2022-09-09T13:25:26.710Z,76370.47
2022-09-09T13:28:06.191Z,76362.47
2022-09-09T13:30:34.593Z,76358.47
2022-09-09T13:33:05.071Z,76356.47
2022-09-09T13:35:31.966Z,76354.47
2022-09-09T13:37:59.211Z,76354.47
2022-09-09T13:40:26.006Z,76356.47
2022-09-09T13:42:53.560Z,76358.47
2022-09-09T13:45:24.171Z,76354.47
2022-09-09T13:47:53.693Z,76358.47
2022-09-09T13:50:21.983Z,76352.47
2022-09-09T13:52:50.119Z,76350.47
2022-09-09T13:55:17.505Z,76350.47
2022-09-09T13:57:57.611Z,76354.47
2022-09-09T14:00:25.202Z,76354.47
2022-09-09T14:02:52.427Z,76350.47
2022-09-09T14:05:19.760Z,76348.47
2022-09-09T14:07:50.066Z,76350.47
2022-09-09T14:10:18.966Z,76354.47
2022-09-09T14:12:45.355Z,76348.47
2022-09-09T14:15:12.992Z,76350.47
2022-09-09T14:17:39.943Z,76348.47
2022-09-09T14:20:08.625Z,76352.47
2022-09-09T14:22:35.064Z,76338.44
2022-09-09T14:25:01.875Z,76334.44
2022-09-09T14:27:28.294Z,76338.44
2022-09-09T14:29:54.967Z,76328.44
2022-09-09T14:32:22.051Z,76338.44
2022-09-09T14:34:50.614Z,76328.44
2022-09-09T14:37:17.662Z,76326.44
2022-09-09T14:39:48.067Z,76326.44
2022-09-09T14:42:14.818Z,76330.44
2022-09-09T14:44:41.711Z,76322.44
2022-09-09T14:47:09.065Z,76320.44
2022-09-09T14:49:35.799Z,76326.44
2022-09-09T14:52:02.517Z,76338.44
2022-09-09T14:54:29.185Z,76342.44
2022-09-09T14:56:55.568Z,76334.44
2022-09-09T14:59:23.244Z,76348.47
2022-09-09T15:01:49.870Z,76346.47
2022-09-09T15:04:17.721Z,76346.47
2022-09-09T15:06:45.577Z,76350.47
2022-09-09T15:09:12.303Z,76352.47
2022-09-09T15:11:38.965Z,76360.47
2022-09-09T15:14:09.857Z,76378.47
2022-09-09T15:16:36.552Z,76374.47
2022-09-09T15:19:03.669Z,76370.47
2022-09-09T15:21:32.165Z,76366.47
2022-09-09T15:23:59.110Z,76358.47
2022-09-09T15:26:26.067Z,76346.47
2022-09-09T15:28:52.603Z,76342.44
2022-09-09T15:31:25.779Z,76342.44
2022-09-09T15:33:53.097Z,76338.44
2022-09-09T15:36:26.286Z,76338.44
2022-09-09T15:38:53.242Z,76342.44
2022-09-09T15:41:20.959Z,76348.47
2022-09-09T15:43:48.639Z,76352.47
2022-09-09T15:46:18.052Z,76356.47
2022-09-09T15:48:46.082Z,76358.47
2022-09-09T15:51:38.071Z,76350.47
2022-09-09T15:54:01.538Z,76358.47
2022-09-09T15:56:28.993Z,76372.47
2022-09-09T15:58:58.603Z,76374.47
2022-09-09T16:01:25.421Z,76374.47
2022-09-09T16:03:52.131Z,76370.47
2022-09-09T16:06:22.327Z,76370.47
2022-09-09T16:08:53.235Z,76370.47
2022-09-09T16:11:27.303Z,76370.47
2022-09-09T16:13:54.615Z,76380.47
2022-09-09T16:16:25.485Z,76380.47
2022-09-09T16:18:53.682Z,76394.50
2022-09-09T16:21:30.240Z,76382.47
2022-09-09T16:23:57.456Z,76382.47
2022-09-09T16:26:24.094Z,76388.47
2022-09-09T16:28:50.525Z,76390.47
2022-09-09T16:31:18.628Z,76388.47
2022-09-09T16:33:45.579Z,76394.50
2022-09-09T16:36:13.411Z,76396.50
2022-09-09T16:38:39.954Z,76394.50
2022-09-09T16:41:07.273Z,76386.47
2022-09-09T16:43:34.342Z,76392.50
2022-09-09T16:46:01.480Z,76380.47
2022-09-09T16:48:34.775Z,76380.47
2022-09-09T16:51:09.334Z,76388.47
2022-09-09T16:53:35.667Z,76390.47
2022-09-09T16:56:08.163Z,76384.47
2022-09-09T16:58:34.686Z,76382.47
2022-09-09T17:01:03.220Z,76390.47
2022-09-09T17:03:29.975Z,76382.47
2022-09-09T17:05:56.394Z,76380.47
2022-09-09T17:08:22.691Z,76382.47
2022-09-09T17:10:49.047Z,76382.47
2022-09-09T17:13:15.406Z,76384.47
2022-09-09T17:15:43.878Z,76382.47
2022-09-09T17:18:10.999Z,76378.47
2022-09-09T17:20:46.927Z,76378.47
2022-09-09T17:23:16.655Z,76378.47
2022-09-09T17:25:43.951Z,76388.47
2022-09-09T17:28:10.288Z,76398.50
2022-09-09T17:30:37.620Z,76404.50
2022-09-09T17:33:04.629Z,76404.50
2022-09-09T17:35:31.624Z,76394.50
2022-09-09T17:37:58.668Z,76378.47
2022-09-09T17:40:25.067Z,76358.47
2022-09-09T17:42:51.562Z,76350.47
2022-09-09T17:45:17.997Z,76350.47
2022-09-09T17:47:45.606Z,76352.47
2022-09-09T17:50:13.730Z,76362.47
2022-09-09T17:52:41.595Z,76374.47
2022-09-09T17:55:10.152Z,76366.47
2022-09-09T17:57:36.494Z,76370.47
2022-09-09T18:00:03.677Z,76380.47
2022-09-09T18:02:30.053Z,76376.47
2022-09-09T18:04:56.462Z,76378.47
2022-09-09T18:07:24.866Z,76386.47
2022-09-09T18:09:51.210Z,76394.50
2022-09-09T18:12:18.047Z,76390.47
2022-09-09T18:14:44.459Z,76394.50
2022-09-09T18:17:11.101Z,76404.50
2022-09-09T18:19:37.454Z,76414.50
2022-09-09T18:22:05.193Z,76414.50
2022-09-09T18:24:32.050Z,76406.50
2022-09-09T18:26:58.546Z,76408.50
2022-09-09T18:29:25.519Z,76410.50
2022-09-09T18:31:54.058Z,76412.50
2022-09-09T18:34:21.098Z,76406.50
2022-09-09T18:36:48.760Z,76410.50
2022-09-09T18:39:16.733Z,76410.50
2022-09-09T18:41:47.275Z,76410.50
2022-09-09T18:44:16.490Z,76414.50
2022-09-09T18:46:43.402Z,76418.50
2022-09-09T18:49:11.574Z,76424.50
2022-09-09T18:51:40.551Z,76430.50
2022-09-09T18:54:09.446Z,76430.50
2022-09-09T18:56:36.451Z,76426.50
2022-09-09T18:59:04.406Z,76424.50
2022-09-09T19:01:31.043Z,76428.50
2022-09-09T19:03:57.381Z,76430.50
2022-09-09T19:06:25.623Z,76434.50
2022-09-09T19:08:55.460Z,76430.50
2022-09-09T19:11:24.314Z,76442.53
2022-09-09T19:13:57.820Z,76450.53
2022-09-09T19:16:25.425Z,76456.53
2022-09-09T19:18:52.622Z,76446.53
2022-09-09T19:21:22.200Z,76454.53
2022-09-09T19:23:51.301Z,76458.53
2022-09-09T19:26:17.671Z,76454.53
2022-09-09T19:28:47.017Z,76458.53
2022-09-09T19:31:15.721Z,76468.53
2022-09-09T19:33:43.470Z,76466.53
2022-09-09T19:36:10.971Z,76466.53
2022-09-09T19:38:37.517Z,76466.53
2022-09-09T19:41:05.627Z,76470.53
2022-09-09T19:43:32.538Z,76472.53
2022-09-09T19:46:03.475Z,76470.53
2022-09-09T19:48:34.094Z,76466.53
2022-09-09T19:51:08.817Z,76470.53
2022-09-09T19:53:36.279Z,76458.53
2022-09-09T19:56:05.722Z,76466.53
2022-09-09T19:58:34.323Z,76460.53
2022-09-09T20:01:11.866Z,76460.53
2022-09-09T20:03:39.151Z,76460.53
2022-09-09T20:06:06.369Z,76462.53
2022-09-09T20:08:33.245Z,76458.53
2022-09-09T20:11:01.194Z,76462.53
2022-09-09T20:13:31.827Z,76458.53
2022-09-09T20:16:00.385Z,76462.53
2022-09-09T20:18:32.292Z,76462.53
2022-09-09T20:21:02.482Z,76454.53
2022-09-09T20:23:28.955Z,76456.53
2022-09-09T20:25:55.784Z,76450.53
2022-09-09T20:28:22.446Z,76446.53
2022-09-09T20:30:51.401Z,76450.53
2022-09-09T20:33:18.455Z,76442.53
2022-09-09T20:35:45.501Z,76442.53
2022-09-09T20:38:11.828Z,76438.53
2022-09-09T20:40:38.604Z,76438.53
2022-09-09T20:43:05.388Z,76434.50
2022-09-09T20:45:35.508Z,76438.53
2022-09-09T20:48:01.907Z,76432.50
2022-09-09T20:50:28.273Z,76432.50
2022-09-09T20:52:54.763Z,76430.50
2022-09-09T20:55:21.107Z,76432.50
2022-09-09T20:57:47.948Z,76430.50
2022-09-09T21:00:15.069Z,76438.53
2022-09-09T21:02:41.705Z,76434.50
2022-09-09T21:05:08.416Z,76436.53
2022-09-09T21:07:34.736Z,76438.53
2022-09-09T21:10:02.120Z,76442.53
2022-09-09T21:12:28.508Z,76444.53
2022-09-09T21:14:54.803Z,76450.53
2022-09-09T21:17:21.866Z,76450.53
2022-09-09T21:19:48.208Z,76452.53
2022-09-09T21:22:14.746Z,76450.53
2022-09-09T21:24:41.081Z,76448.53
2022-09-09T21:27:07.398Z,76454.53
2022-09-09T21:29:33.816Z,76458.53
2022-09-09T21:32:03.627Z,76456.53
2022-09-09T21:34:30.090Z,76456.53
2022-09-09T21:36:56.837Z,76458.53
2022-09-09T21:39:23.161Z,76456.53
2022-09-09T21:41:49.594Z,76454.53
2022-09-09T21:44:16.002Z,76448.53
2022-09-09T21:46:43.811Z,76454.53
2022-09-09T21:49:11.112Z,76450.53
2022-09-09T21:51:37.463Z,76450.53
2022-09-09T21:54:03.870Z,76448.53
2022-09-09T21:56:30.239Z,76452.53
2022-09-09T21:58:57.618Z,76450.53
2022-09-09T22:01:26.304Z,76450.53
2022-09-09T22:03:52.798Z,76446.53
2022-09-09T22:06:19.778Z,76452.53
2022-09-09T22:08:46.965Z,76452.53
2022-09-09T22:11:15.154Z,76454.53
2022-09-09T22:13:42.630Z,76452.53
2022-09-09T22:16:10.791Z,76450.53
2022-09-09T22:18:37.150Z,76450.53
2022-09-09T22:21:10.942Z,76450.53
2022-09-09T22:23:37.555Z,76446.53
2022-09-09T22:26:04.314Z,76444.53
2022-09-09T22:28:30.881Z,76442.53
2022-09-09T22:30:57.300Z,76442.53
2022-09-09T22:33:24.255Z,76444.53
2022-09-09T22:35:50.580Z,76442.53
2022-09-09T22:38:17.303Z,76442.53
2022-09-09T22:40:43.651Z,76446.53
2022-09-09T22:43:14.783Z,76448.53
2022-09-09T22:45:42.522Z,76446.53
2022-09-09T22:48:08.952Z,76446.53
2022-09-09T22:50:38.981Z,76444.53
2022-09-09T22:53:08.384Z,76446.53
2022-09-09T22:55:34.758Z,76446.53
2022-09-09T22:58:01.401Z,76440.53
2022-09-09T23:00:27.823Z,76442.53
2022-09-09T23:02:54.787Z,76442.53
2022-09-09T23:05:22.582Z,76436.53
2022-09-09T23:07:48.951Z,76438.53
2022-09-09T23:10:16.137Z,76434.50
2022-09-09T23:12:42.670Z,76436.53
2022-09-09T23:15:10.470Z,76442.53
2022-09-09T23:17:37.308Z,76436.53
2022-09-09T23:20:05.150Z,76434.50
2022-09-09T23:22:34.379Z,76434.50
2022-09-09T23:25:01.478Z,76434.50
2022-09-09T23:27:27.859Z,76434.50
2022-09-09T23:29:55.698Z,76438.53
2022-09-09T23:32:22.758Z,76434.50
2022-09-09T23:34:49.087Z,76442.53
2022-09-09T23:37:16.176Z,76442.53
2022-09-09T23:39:43.532Z,76446.53
2022-09-09T23:42:11.343Z,76446.53
2022-09-09T23:44:38.456Z,76444.53
2022-09-09T23:47:08.151Z,76450.53
2022-09-09T23:49:35.003Z,76446.53
2022-09-09T23:52:04.269Z,76442.53
2022-09-09T23:54:30.743Z,76438.53
2022-09-09T23:56:57.367Z,76436.53
2022-09-09T23:59:23.808Z,76434.50
